Time;durP1;ratioP1;P1;durP2;ratioP2;P2;SDS_P1;SDS_P2;PMS_P1;PMS_P2;Temp;Humidity;BMP_temperature;BMP_pressure;BME280_temperature;BME280_humidity;BME280_pressure;Samples;Min_cycle;Max_cycle;Signal;HPM_P1;HPM_P2
2022/06/16 00:00:28;;;;;;;9.88;4.85;;;;;;;15.91;nan;100903.41;5054575;28;20152;-69
2022/06/16 00:02:53;;;;;;;10.38;4.13;;;;;;;15.81;nan;100892.66;5054519;28;20107;-68
2022/06/16 00:05:23;;;;;;;11.30;4.45;;;;;;;15.81;nan;100895.31;5054596;28;20087;-68
2022/06/16 00:07:49;;;;;;;8.40;4.47;;;;;;;15.76;nan;100884.63;5035435;28;20033;-68
2022/06/16 00:10:16;;;;;;;14.43;4.50;;;;;;;15.73;nan;100890.44;5054447;28;20032;-68
2022/06/16 00:12:42;;;;;;;6.93;4.20;;;;;;;15.71;nan;100897.84;5054031;28;20091;-67
2022/06/16 00:15:11;;;;;;;8.38;4.18;;;;;;;15.68;nan;100892.97;5036260;28;20029;-68
2022/06/16 00:17:37;;;;;;;8.55;4.50;;;;;;;15.61;nan;100887.88;5054437;28;20426;-68
2022/06/16 00:20:04;;;;;;;9.88;4.35;;;;;;;15.64;nan;100884.72;5054225;28;20029;-68
2022/06/16 00:22:31;;;;;;;6.45;3.95;;;;;;;15.63;nan;100890.28;5054251;28;20033;-67
2022/06/16 00:24:57;;;;;;;11.90;4.38;;;;;;;15.65;nan;100890.84;5053549;28;20029;-67
2022/06/16 00:27:22;;;;;;;9.15;4.68;;;;;;;15.60;nan;100875.63;5036101;28;20120;-67
2022/06/16 00:29:48;;;;;;;11.88;4.47;;;;;;;15.65;nan;100886.31;5054289;28;20040;-68
2022/06/16 00:32:13;;;;;;;6.90;4.68;;;;;;;15.55;nan;100882.75;5035918;28;20387;-67
2022/06/16 00:34:39;;;;;;;6.55;4.30;;;;;;;15.55;nan;100882.75;5054203;28;20037;-67
2022/06/16 00:37:04;;;;;;;10.60;5.00;;;;;;;15.52;nan;100879.53;5054055;28;20037;-68
2022/06/16 00:39:30;;;;;;;12.23;4.85;;;;;;;15.45;nan;100875.47;5053978;28;20065;-68
2022/06/16 00:41:55;;;;;;;11.25;4.85;;;;;;;15.32;nan;100879.25;5053423;28;20376;-67
2022/06/16 00:44:24;;;;;;;7.93;4.55;;;;;;;15.32;nan;100880.06;5053476;28;20029;-68
2022/06/16 00:46:49;;;;;;;10.07;4.90;;;;;;;15.23;nan;100870.13;5053888;28;20135;-67
2022/06/16 00:49:15;;;;;;;9.93;4.47;;;;;;;15.21;nan;100873.00;5035620;28;20116;-67
2022/06/16 00:51:44;;;;;;;5.82;4.05;;;;;;;15.10;nan;100861.44;5036104;28;20356;-68
2022/06/16 00:54:19;;;;;;;;;;;;;;;15.13;nan;100872.59;5053726;28;20501;-67
2022/06/16 00:56:47;;;;;;;12.02;3.67;;;;;;;15.12;nan;100869.16;5035571;28;20007;-68
2022/06/16 00:59:12;;;;;;;7.38;4.00;;;;;;;15.07;nan;100864.56;5052924;28;20037;-67
2022/06/16 01:01:41;;;;;;;6.90;4.03;;;;;;;14.98;nan;100863.38;5053455;28;20033;-67
2022/06/16 01:06:52;;;;;;;5.63;3.80;;;;;;;14.99;nan;100864.19;5033853;28;20263;-68
2022/06/16 01:09:20;;;;;;;11.82;4.45;;;;;;;14.98;nan;100863.38;5015527;28;20040;-68
2022/06/16 01:15:00;;;;;;;10.60;4.20;;;;;;;14.98;nan;100868.69;5032874;28;20034;-68
2022/06/16 01:17:50;;;;;;;7.15;4.22;;;;;;;14.99;nan;100875.59;5033363;28;20037;-68
2022/06/16 01:20:32;;;;;;;6.85;4.47;;;;;;;14.97;nan;100879.56;5048708;28;20036;-68
2022/06/16 01:23:00;;;;;;;8.65;4.05;;;;;;;14.95;nan;100879.00;5052531;28;20033;-68
2022/06/16 01:25:31;;;;;;;4.97;3.80;;;;;;;14.91;nan;100877.84;5034647;28;20041;-67
2022/06/16 01:28:15;;;;;;;5.88;4.18;;;;;;;14.80;nan;100871.59;5053094;28;20044;-68
2022/06/16 01:30:50;;;;;;;9.30;4.30;;;;;;;14.65;nan;100872.97;5052558;28;20029;-68
2022/06/16 01:33:45;;;;;;;5.65;3.63;;;;;;;14.65;nan;100877.44;5053073;28;20387;-68
2022/06/16 01:36:26;;;;;;;8.80;4.10;;;;;;;14.54;nan;100857.13;5051851;28;20040;-68
2022/06/16 01:39:03;;;;;;;8.27;4.07;;;;;;;14.53;nan;100866.88;5052961;28;20116;-68
2022/06/16 01:41:49;;;;;;;10.82;4.30;;;;;;;14.39;nan;100876.16;5052845;28;20043;-68
2022/06/16 01:44:48;;;;;;;8.85;4.20;;;;;;;14.30;nan;100873.13;5034990;28;20716;-68
2022/06/16 01:47:18;;;;;;;6.50;3.97;;;;;;;14.16;nan;100867.31;5037694;28;20149;-68
2022/06/16 01:49:55;;;;;;;7.05;3.97;;;;;;;14.17;nan;100866.25;5034540;28;20037;-68
2022/06/16 01:52:34;;;;;;;9.50;3.90;;;;;;;14.11;nan;100866.41;5052610;28;20025;-68
2022/06/16 01:55:08;;;;;;;6.25;4.15;;;;;;;14.09;nan;100861.34;5052460;28;20033;-68
2022/06/16 01:57:38;;;;;;;6.07;3.88;;;;;;;14.11;nan;100861.91;5052668;28;20032;-69
2022/06/16 02:00:04;;;;;;;9.18;4.50;;;;;;;14.10;nan;100868.22;5052551;28;20064;-68
2022/06/16 02:02:33;;;;;;;9.07;4.32;;;;;;;14.01;nan;100857.22;5052245;28;20060;-68
2022/06/16 02:05:19;;;;;;;5.65;4.07;;;;;;;13.90;nan;100851.97;5034280;28;20040;-67
2022/06/16 02:07:53;;;;;;;7.97;3.92;;;;;;;13.91;nan;100859.69;5051873;28;20029;-68
2022/06/16 02:10:29;;;;;;;7.72;4.40;;;;;;;13.84;nan;100861.69;5052292;28;20037;-67
2022/06/16 02:12:57;;;;;;;9.20;4.95;;;;;;;13.76;nan;100865.47;5034053;28;20100;-67
2022/06/16 02:15:37;;;;;;;9.33;3.93;;;;;;;13.73;nan;100854.56;5052381;28;20037;-67
2022/06/16 02:18:08;;;;;;;9.20;4.00;;;;;;;13.67;nan;100856.31;5052678;28;20033;-67
2022/06/16 02:20:46;;;;;;;8.00;4.32;;;;;;;13.60;nan;100853.78;5052227;28;20032;-66
2022/06/16 02:23:13;;;;;;;6.28;3.97;;;;;;;13.58;nan;100855.06;5051422;28;20029;-67
2022/06/16 02:25:39;;;;;;;7.45;3.90;;;;;;;13.54;nan;100851.25;5034119;28;20091;-68
2022/06/16 02:28:04;;;;;;;8.57;4.10;;;;;;;13.53;nan;100852.31;5052384;28;20064;-67
2022/06/16 02:30:36;;;;;;;7.63;4.22;;;;;;;13.50;nan;100860.69;5052004;28;20115;-68
2022/06/16 02:33:15;;;;;;;6.22;4.25;;;;;;;13.45;nan;100850.00;5052386;28;20574;-68
2022/06/16 02:36:05;;;;;;;9.48;4.68;;;;;;;13.40;nan;100848.84;5053695;28;20124;-68
2022/06/16 02:38:56;;;;;;;6.18;4.40;;;;;;;13.27;nan;100853.59;5056249;28;20029;-67
2022/06/16 02:42:11;;;;;;;7.05;4.38;;;;;;;13.30;nan;100863.72;5056147;28;20040;-68
2022/06/16 02:44:43;;;;;;;7.10;4.10;;;;;;;13.30;nan;100864.53;4971510;28;20105;-68
2022/06/16 02:47:46;;;;;;;6.13;4.63;;;;;;;13.22;nan;100856.09;4974909;28;20035;-68
2022/06/16 02:50:24;;;;;;;11.23;5.68;;;;;;;13.27;nan;100867.63;4974767;28;20038;-68
2022/06/16 02:54:09;;;;;;;7.30;4.30;;;;;;;13.26;nan;100865.19;4974914;28;20046;-68
2022/06/16 02:56:46;;;;;;;6.47;4.45;;;;;;;13.22;nan;100867.50;4950745;28;20041;-68
2022/06/16 02:59:19;;;;;;;7.60;4.53;;;;;;;13.16;nan;100863.91;4957585;28;20147;-67
2022/06/16 03:01:46;;;;;;;8.45;4.38;;;;;;;13.19;nan;100865.28;4973816;28;20031;-67
2022/06/16 03:04:17;;;;;;;7.97;4.32;;;;;;;13.29;nan;100872.69;4974485;28;20030;-68
2022/06/16 03:06:44;;;;;;;8.32;4.20;;;;;;;13.18;nan;100859.22;4974488;28;20039;-68
2022/06/16 03:09:10;;;;;;;6.88;4.05;;;;;;;13.30;nan;100880.38;4974526;28;20046;-68
2022/06/16 03:11:36;;;;;;;10.15;4.80;;;;;;;13.25;nan;100860.94;4974350;28;20078;-68
2022/06/16 03:14:03;;;;;;;8.40;4.47;;;;;;;13.31;nan;100882.00;4974570;28;20188;-67
2022/06/16 03:16:29;;;;;;;9.55;4.38;;;;;;;13.23;nan;100855.06;4973521;28;20121;-67
2022/06/16 03:18:54;;;;;;;10.98;4.80;;;;;;;13.31;nan;100875.91;4974357;28;20393;-67
2022/06/16 03:21:20;;;;;;;6.28;4.13;;;;;;;13.17;nan;100860.25;5037552;28;20044;-67
2022/06/16 03:23:45;;;;;;;8.00;3.92;;;;;;;13.15;nan;100864.16;5055158;28;20025;-69
2022/06/16 03:26:12;;;;;;;10.73;4.32;;;;;;;13.15;nan;100864.16;5055158;28;20086;-68
2022/06/16 03:28:37;;;;;;;7.97;4.40;;;;;;;13.16;nan;100871.84;5055389;28;20036;-67
2022/06/16 03:31:04;;;;;;;11.93;4.43;;;;;;;13.15;nan;100874.75;5055157;28;20147;-68
2022/06/16 03:33:29;;;;;;;9.43;4.40;;;;;;;13.13;nan;100869.66;5054766;28;20510;-68
2022/06/16 03:35:56;;;;;;;8.27;4.55;;;;;;;13.17;nan;100867.38;5055124;28;20043;-68
2022/06/16 03:40:47;;;;;;;8.25;4.03;;;;;;;13.30;nan;100869.81;5055161;28;20118;-67
2022/06/16 03:43:12;;;;;;;11.10;4.10;;;;;;;13.32;nan;100857.16;5055008;28;20071;-67
2022/06/16 03:45:38;;;;;;;8.13;4.15;;;;;;;13.42;nan;100864.50;5054815;28;20036;-67
2022/06/16 03:48:05;;;;;;;8.20;3.92;;;;;;;13.49;nan;100865.19;5054402;28;20040;-67
2022/06/16 03:50:30;;;;;;;5.57;3.97;;;;;;;13.50;nan;100869.44;5036639;28;20041;-68
2022/06/16 03:52:56;;;;;;;10.02;4.00;;;;;;;13.53;nan;100861.06;5054922;28;20051;-70
2022/06/16 03:55:22;;;;;;;8.82;4.63;;;;;;;13.61;nan;100863.31;5054525;28;20033;-68
2022/06/16 03:57:47;;;;;;;7.88;4.25;;;;;;;13.72;nan;100866.16;5054864;28;20036;-68
2022/06/16 04:00:14;;;;;;;13.25;4.40;;;;;;;13.60;nan;100840.56;5036415;28;20029;-68
2022/06/16 04:02:40;;;;;;;13.25;4.20;;;;;;;13.82;nan;100866.41;5054432;28;20029;-68
2022/06/16 04:05:07;;;;;;;7.63;4.05;;;;;;;13.89;nan;100811.47;5033532;28;20179;-68
2022/06/16 04:07:34;;;;;;;7.80;3.50;;;;;;;13.96;nan;100880.97;5016887;28;20037;-68
2022/06/16 04:09:59;;;;;;;9.43;3.90;;;;;;;14.02;nan;100877.38;5016160;28;20033;-68
2022/06/16 04:12:25;;;;;;;6.13;3.97;;;;;;;14.14;nan;100881.81;5033531;28;20057;-68
2022/06/16 04:14:50;;;;;;;9.38;4.03;;;;;;;14.26;nan;100882.56;5034756;28;20040;-68
2022/06/16 04:17:16;;;;;;;13.55;4.13;;;;;;;14.31;nan;100880.00;5034458;28;20025;-68
2022/06/16 04:20:11;;;;;;;6.20;3.50;;;;;;;14.43;nan;100880.75;5045381;28;20079;-68
2022/06/16 04:22:27;;;;;;;9.48;3.78;;;;;;;14.51;nan;100882.22;5053632;28;20045;-68
2022/06/16 04:24:52;;;;;;;13.52;4.20;;;;;;;14.62;nan;100881.38;5053868;28;20033;-68
2022/06/16 04:27:18;;;;;;;7.43;3.65;;;;;;;14.74;nan;100883.94;5054132;28;20068;-68
2022/06/16 04:29:43;;;;;;;7.18;3.97;;;;;;;14.78;nan;100886.94;5054282;28;20124;-68
2022/06/16 04:32:08;;;;;;;6.05;3.75;;;;;;;14.87;nan;100885.50;5035825;28;20044;-67
2022/06/16 04:34:34;;;;;;;11.95;3.55;;;;;;;14.97;nan;100882.19;5054149;28;20458;-68
2022/06/16 04:37:00;;;;;;;6.43;3.83;;;;;;;15.06;nan;100891.34;5054035;28;20036;-68
2022/06/16 04:39:25;;;;;;;7.78;3.78;;;;;;;15.15;nan;100881.94;5054144;28;20032;-68
2022/06/16 04:41:51;;;;;;;7.60;3.65;;;;;;;15.21;nan;100875.66;5053821;28;20039;-68
2022/06/16 04:44:16;;;;;;;15.60;3.65;;;;;;;15.35;nan;100891.22;5053928;28;20052;-68
2022/06/16 04:46:41;;;;;;;5.72;3.55;;;;;;;15.44;nan;100882.63;5053604;28;20059;-68
2022/06/16 04:49:07;;;;;;;4.82;3.70;;;;;;;15.61;nan;100892.38;5035625;28;20040;-69
2022/06/16 04:51:32;;;;;;;6.60;3.58;;;;;;;15.66;nan;100887.16;5053816;28;20033;-68
2022/06/16 04:53:58;;;;;;;10.13;3.88;;;;;;;15.74;nan;100876.91;5053488;28;20486;-68
2022/06/16 04:56:23;;;;;;;10.80;3.58;;;;;;;15.91;nan;100898.09;5053598;28;20479;-68
2022/06/16 04:58:48;;;;;;;18.23;3.70;;;;;;;16.01;nan;100891.28;5035107;28;20048;-68
2022/06/16 05:01:14;;;;;;;4.35;3.40;;;;;;;16.11;nan;100891.38;5052573;28;20029;-68
2022/06/16 05:03:39;;;;;;;8.02;3.45;;;;;;;16.18;nan;100886.69;5052489;28;20079;-68
2022/06/16 05:06:04;;;;;;;7.68;3.97;;;;;;;16.33;nan;100902.00;5052495;28;20064;-68
2022/06/16 05:08:30;;;;;;;11.75;3.80;;;;;;;16.41;nan;100896.22;5052928;28;20090;-69
2022/06/16 05:10:55;;;;;;;9.80;3.42;;;;;;;16.60;nan;100899.31;5053321;28;20060;-68
2022/06/16 05:13:21;;;;;;;4.88;3.25;;;;;;;16.73;nan;100904.22;5052991;28;20045;-68
2022/06/16 05:15:47;;;;;;;12.60;3.70;;;;;;;16.86;nan;100892.38;5053334;28;20033;-68
2022/06/16 05:18:13;;;;;;;9.77;3.38;;;;;;;16.93;nan;100889.53;5034685;28;20499;-68
2022/06/16 05:20:41;;;;;;;13.65;3.20;;;;;;;17.06;nan;100891.72;5052868;28;20489;-68
2022/06/16 05:23:08;;;;;;;10.20;3.40;;;;;;;17.13;nan;100892.31;5052848;28;20542;-68
2022/06/16 05:25:33;;;;;;;7.45;3.55;;;;;;;17.26;nan;100896.38;5053066;28;20040;-68
2022/06/16 05:27:59;;;;;;;8.95;3.50;;;;;;;17.36;nan;100899.09;5053065;28;20493;-68
2022/06/16 05:30:24;;;;;;;9.80;4.07;;;;;;;17.44;nan;100897.81;5052781;28;20090;-68
2022/06/16 05:32:49;;;;;;;15.75;4.03;;;;;;;17.50;nan;100896.75;5034741;28;20487;-68
2022/06/16 05:35:15;;;;;;;10.75;3.58;;;;;;;17.64;nan;100894.44;5053059;28;20032;-69
2022/06/16 05:37:40;;;;;;;9.07;3.35;;;;;;;17.76;nan;100895.03;5052069;28;20041;-68
2022/06/16 05:40:06;;;;;;;13.82;3.58;;;;;;;17.89;nan;100893.00;5052920;28;20063;-69
2022/06/16 05:42:32;;;;;;;10.70;3.20;;;;;;;17.99;nan;100899.13;5034181;28;20430;-68
2022/06/16 05:44:57;;;;;;;8.88;3.28;;;;;;;18.13;nan;100896.00;5052722;28;20032;-68
2022/06/16 05:47:23;;;;;;;15.82;3.05;;;;;;;18.30;nan;100895.75;5052676;28;20025;-68
2022/06/16 05:49:48;;;;;;;8.48;3.65;;;;;;;18.32;nan;100888.31;5052819;28;20131;-68
2022/06/16 05:52:20;;;;;;;17.23;3.10;;;;;;;18.57;nan;100900.84;5034453;28;20032;-68
2022/06/16 05:54:47;;;;;;;13.45;3.03;;;;;;;18.63;nan;100892.59;5052554;28;20033;-68
2022/06/16 05:57:12;;;;;;;9.95;3.08;;;;;;;18.83;nan;100899.00;5034538;28;20119;-68
2022/06/16 05:59:39;;;;;;;9.15;2.90;;;;;;;18.92;nan;100902.75;5052664;28;20124;-68
2022/06/16 06:02:07;;;;;;;9.65;3.58;;;;;;;19.01;nan;100901.16;5052582;28;20079;-68
2022/06/16 06:04:33;;;;;;;7.53;3.28;;;;;;;19.01;nan;100890.47;5052451;28;20025;-68
2022/06/16 06:07:01;;;;;;;8.95;3.00;;;;;;;19.24;nan;100906.97;5052552;28;20037;-68
2022/06/16 06:18:20;;;;;;;4.97;2.60;;;;;;;19.83;nan;100905.50;5010179;28;20037;-68
2022/06/16 06:20:45;;;;;;;7.95;3.05;;;;;;;19.82;nan;100901.19;5010258;28;20048;-68
2022/06/16 06:23:11;;;;;;;11.18;3.00;;;;;;;19.87;nan;100896.66;5010055;28;20403;-69
2022/06/16 06:25:36;;;;;;;9.27;3.25;;;;;;;19.90;nan;100893.41;4994152;28;20552;-68
2022/06/16 06:28:02;;;;;;;8.02;3.22;;;;;;;20.07;nan;100895.72;5010311;28;20037;-68
2022/06/16 06:30:30;;;;;;;6.43;3.22;;;;;;;20.10;nan;100902.41;4993721;28;20494;-68
2022/06/16 06:32:57;;;;;;;5.72;2.95;;;;;;;20.22;nan;100913.56;5010037;28;20084;-68
2022/06/16 06:35:22;;;;;;;5.75;2.90;;;;;;;20.33;nan;100903.59;5010305;28;20037;-68
2022/06/16 06:37:49;;;;;;;5.22;3.05;;;;;;;20.38;nan;100904.38;5010275;28;20423;-68
2022/06/16 06:40:21;;;;;;;5.97;3.25;;;;;;;20.53;nan;100905.31;5010019;28;20033;-68
2022/06/16 06:42:47;;;;;;;8.07;3.50;;;;;;;20.55;nan;100914.72;4993784;28;20038;-68
2022/06/16 06:45:12;;;;;;;7.85;3.28;;;;;;;20.59;nan;100905.06;5010099;28;20542;-68
2022/06/16 06:47:38;;;;;;;10.38;3.85;;;;;;;20.71;nan;100909.22;4993859;28;20472;-68
2022/06/16 06:50:04;;;;;;;6.18;3.35;;;;;;;20.84;nan;100915.81;5010066;28;20045;-68
2022/06/16 06:52:29;;;;;;;10.25;3.75;;;;;;;20.89;nan;100908.53;5046787;28;20033;-68
2022/06/16 06:54:55;;;;;;;6.32;3.25;;;;;;;20.97;nan;100915.16;5051811;28;20475;-68
2022/06/16 06:57:23;;;;;;;5.50;3.53;;;;;;;21.02;nan;100915.94;5052093;28;20037;-68
2022/06/16 06:59:50;;;;;;;7.10;3.40;;;;;;;21.06;nan;100907.31;5052089;28;20036;-68
2022/06/16 07:02:16;;;;;;;7.68;3.60;;;;;;;21.14;nan;100915.56;5033758;28;20037;-68
2022/06/16 07:04:42;;;;;;;7.22;3.40;;;;;;;21.18;nan;100902.38;5051922;28;20033;-68
2022/06/16 07:07:10;;;;;;;6.63;3.78;;;;;;;21.36;nan;100900.88;5051110;28;20029;-68
2022/06/16 07:09:36;;;;;;;8.20;4.03;;;;;;;21.53;nan;100901.22;5033863;28;20068;-68
2022/06/16 07:12:01;;;;;;;8.80;3.50;;;;;;;21.58;nan;100892.34;5051716;28;20083;-68
2022/06/16 07:14:29;;;;;;;8.77;4.03;;;;;;;21.74;nan;100899.09;5051880;28;20032;-68
2022/06/16 07:16:55;;;;;;;8.95;3.83;;;;;;;21.76;nan;100885.41;5033824;28;20070;-68
2022/06/16 07:19:20;;;;;;;7.80;3.55;;;;;;;21.96;nan;100887.81;5033963;28;20097;-68
2022/06/16 07:21:46;;;;;;;9.45;3.60;;;;;;;22.03;nan;100884.78;5052850;28;20029;-68
2022/06/16 07:24:11;;;;;;;7.07;3.40;;;;;;;22.11;nan;100843.09;5036821;28;20043;-68
2022/06/16 07:26:36;;;;;;;7.57;3.78;;;;;;;22.25;nan;100833.25;5055358;28;20479;-68
2022/06/16 07:29:02;;;;;;;9.43;3.60;;;;;;;22.36;nan;100841.91;5037418;28;20040;-68
2022/06/16 07:31:28;;;;;;;5.45;3.58;;;;;;;22.39;nan;100819.88;5055194;28;20090;-68
2022/06/16 07:33:55;;;;;;;4.90;3.10;;;;;;;22.44;nan;100815.22;5055247;28;20056;-68
2022/06/16 07:36:21;;;;;;;5.30;3.70;;;;;;;22.47;nan;100820.00;5055086;28;20471;-68
2022/06/16 07:38:46;;;;;;;7.20;3.22;;;;;;;22.50;nan;100832.03;5055283;28;20079;-68
2022/06/16 07:43:57;;;;;;;5.22;3.50;;;;;;;22.61;nan;100871.03;5055275;28;20033;-68
2022/06/16 07:46:23;;;;;;;9.45;3.38;;;;;;;22.68;nan;100828.50;5054848;28;20059;-68
2022/06/16 07:48:49;;;;;;;5.43;3.47;;;;;;;22.84;nan;100838.94;5054842;28;20033;-69
2022/06/16 07:51:14;;;;;;;7.53;3.03;;;;;;;;;;5036889;28;20445;-68
2022/06/16 07:53:40;;;;;;;4.28;2.92;;;;;;;23.04;nan;100811.75;5036567;28;20479;-68
2022/06/16 07:56:05;;;;;;;4.22;2.75;;;;;;;23.13;nan;100752.75;5036978;28;20029;-68
2022/06/16 07:58:31;;;;;;;3.38;2.38;;;;;;;23.21;nan;100821.09;5054763;28;20036;-69
2022/06/16 08:00:58;;;;;;;7.18;2.85;;;;;;;23.30;nan;100808.56;5054717;28;20036;-68
2022/06/16 08:03:27;;;;;;;5.75;2.90;;;;;;;23.37;nan;100811.63;5033220;28;20029;-68
2022/06/16 08:05:54;;;;;;;;;;;;;;;23.51;nan;100812.41;5035029;28;20029;-69
2022/06/16 08:08:23;;;;;;;5.20;2.75;;;;;;;23.53;nan;100759.13;5016768;28;20321;-69
2022/06/16 08:10:49;;;;;;;;;;;;;;;23.61;nan;100811.41;5035107;28;20061;-69
2022/06/16 08:13:14;;;;;;;8.05;2.83;;;;;;;23.62;nan;100790.69;5034228;28;20338;-69
2022/06/16 08:15:45;;;;;;;6.85;3.30;;;;;;;23.73;nan;100800.13;5016467;28;20401;-68
2022/06/16 08:18:13;;;;;;;11.27;3.20;;;;;;;23.82;nan;100806.38;5034673;28;20467;-69
2022/06/16 08:20:39;;;;;;;5.90;3.00;;;;;;;23.90;nan;100794.91;5053207;28;20036;-68
2022/06/16 08:23:05;;;;;;;3.65;2.42;;;;;;;23.97;nan;100803.34;5054166;28;20037;-67
2022/06/16 08:25:30;;;;;;;8.23;2.45;;;;;;;24.03;nan;100795.16;5054239;28;20033;-68
2022/06/16 08:27:57;;;;;;;4.88;2.67;;;;;;;24.03;nan;100822.84;5054308;28;20032;-68
2022/06/16 08:30:24;;;;;;;6.72;3.28;;;;;;;24.08;nan;100747.38;5035856;28;20076;-68
2022/06/16 08:32:51;;;;;;;5.80;2.80;;;;;;;24.22;nan;100813.78;5053998;28;20616;-68
2022/06/16 08:35:16;;;;;;;9.77;2.33;;;;;;;24.31;nan;100814.66;5053663;28;20313;-68
2022/06/16 08:37:42;;;;;;;7.10;2.78;;;;;;;24.35;nan;100761.78;5035950;28;20032;-68
2022/06/16 08:40:08;;;;;;;6.80;2.67;;;;;;;24.42;nan;100810.59;5053844;28;20035;-68
2022/06/16 08:42:47;;;;;;;5.35;2.90;;;;;;;24.58;nan;100811.81;5053898;28;20040;-68
2022/06/16 08:45:33;;;;;;;5.88;2.90;;;;;;;24.69;nan;100804.28;5053828;28;20422;-68
2022/06/16 08:48:26;;;;;;;3.60;2.28;;;;;;;24.79;nan;100822.06;5053944;28;20124;-68
2022/06/16 08:50:56;;;;;;;5.38;2.53;;;;;;;24.83;nan;100796.91;5035623;28;20055;-68
2022/06/16 08:53:39;;;;;;;9.13;2.80;;;;;;;24.91;nan;100826.88;5053414;28;20029;-69
2022/06/16 08:56:08;;;;;;;3.42;2.20;;;;;;;24.99;nan;100820.72;5053638;28;20506;-69
2022/06/16 08:58:39;;;;;;;7.40;2.53;;;;;;;25.04;nan;100812.47;5053733;28;20038;-68
2022/06/16 09:01:31;;;;;;;4.60;2.50;;;;;;;25.08;nan;100793.81;5053561;28;20533;-69
2022/06/16 09:04:01;;;;;;;4.93;2.28;;;;;;;25.22;nan;100818.75;5053416;28;20040;-68
2022/06/16 09:06:35;;;;;;;3.35;1.80;;;;;;;25.31;nan;100810.66;5053338;28;20032;-69
2022/06/16 09:10:14;;;;;;;5.40;1.65;;;;;;;25.47;nan;100823.38;5053495;28;20040;-69
2022/06/16 09:12:27;;;;;;;3.60;1.50;;;;;;;25.52;nan;100800.09;5052809;28;20045;-68
2022/06/16 09:15:31;;;;;;;3.25;1.50;;;;;;;25.54;nan;100798.66;5053387;28;20036;-68
2022/06/16 09:18:33;;;;;;;6.38;1.77;;;;;;;25.65;nan;100797.25;5035230;28;20029;-68
2022/06/16 09:21:13;;;;;;;3.50;2.00;;;;;;;25.74;nan;100809.94;5033270;28;20029;-68
2022/06/16 09:23:55;;;;;;;2.72;1.58;;;;;;;25.91;nan;100803.78;5033072;28;20042;-69
2022/06/16 09:26:28;;;;;;;3.72;1.50;;;;;;;25.96;nan;100799.03;5032952;28;20041;-68
2022/06/16 09:29:17;;;;;;;4.55;1.83;;;;;;;26.02;nan;100807.72;5033290;28;20061;-69
2022/06/16 09:31:51;;;;;;;;;;;;;;;26.07;nan;100804.88;5033542;28;20384;-68
2022/06/16 09:34:32;;;;;;;2.75;1.67;;;;;;;26.07;nan;100802.97;5033095;28;19909;-68
2022/06/16 09:37:07;;;;;;;4.75;1.77;;;;;;;26.06;nan;100800.59;5033029;28;20030;-69
2022/06/16 09:39:39;;;;;;;2.85;1.90;;;;;;;26.09;nan;100786.44;5033064;28;20033;-69
2022/06/16 09:45:00;;;;;;;5.00;2.10;;;;;;;26.15;nan;100827.59;5032275;28;20123;-69
2022/06/16 09:47:34;;;;;;;4.38;1.73;;;;;;;26.19;nan;100775.31;5033045;28;20071;-68
2022/06/16 09:50:15;;;;;;;3.80;2.00;;;;;;;26.30;nan;100797.38;5031668;28;20380;-69
2022/06/16 09:53:12;;;;;;;4.05;1.90;;;;;;;26.32;nan;100787.06;5031839;28;20030;-68
2022/06/16 09:55:54;;;;;;;9.93;2.22;;;;;;;26.40;nan;100780.03;5032765;28;20038;-69
2022/06/16 09:58:36;;;;;;;4.00;1.70;;;;;;;26.43;nan;100785.56;5032736;28;20091;-68
2022/06/16 10:01:08;;;;;;;2.42;1.70;;;;;;;26.51;nan;100784.75;5031894;28;20490;-69
2022/06/16 10:03:39;;;;;;;3.70;1.83;;;;;;;26.54;nan;100777.16;5021555;28;20060;-69
2022/06/16 10:06:19;;;;;;;4.78;1.80;;;;;;;26.59;nan;100807.47;5052500;28;20029;-69
2022/06/16 10:09:18;;;;;;;6.30;1.80;;;;;;;26.62;nan;100789.84;5034654;28;20056;-69
2022/06/16 10:12:02;;;;;;;4.07;1.67;;;;;;;26.64;nan;100785.69;5052257;28;20050;-68
2022/06/16 10:14:35;;;;;;;2.55;1.92;;;;;;;26.68;nan;100778.53;5052511;28;20072;-68
2022/06/16 10:17:13;;;;;;;5.00;2.15;;;;;;;26.73;nan;100782.97;5052371;28;20068;-69
2022/06/16 10:19:44;;;;;;;11.35;2.90;;;;;;;26.81;nan;100773.22;5052563;28;20096;-69
2022/06/16 10:22:15;;;;;;;3.20;1.55;;;;;;;26.84;nan;100843.66;5051500;28;20388;-68
2022/06/16 10:24:47;;;;;;;5.63;2.35;;;;;;;26.90;nan;100780.19;5034117;28;20075;-69
2022/06/16 10:27:15;;;;;;;1.85;1.52;;;;;;;26.88;nan;100752.69;5033818;28;20029;-69
2022/06/16 10:29:52;;;;;;;2.50;1.50;;;;;;;26.97;nan;100778.88;5050622;28;20036;-69
2022/06/16 10:32:18;;;;;;;3.70;1.50;;;;;;;27.03;nan;100764.84;5034364;28;20349;-69
2022/06/16 10:34:51;;;;;;;2.20;1.60;;;;;;;27.04;nan;100798.09;5034050;28;20082;-69
2022/06/16 10:37:27;;;;;;;2.95;1.63;;;;;;;27.15;nan;100758.72;5051931;28;20120;-70
2022/06/16 10:40:06;;;;;;;2.22;1.77;;;;;;;27.24;nan;100791.94;5034193;28;20458;-70
2022/06/16 10:42:42;;;;;;;4.85;1.98;;;;;;;27.30;nan;100789.84;5034077;28;20378;-70
2022/06/16 10:45:41;;;;;;;3.35;1.70;;;;;;;27.41;nan;100768.59;5034432;28;20032;-67
2022/06/16 10:48:25;;;;;;;3.28;1.70;;;;;;;27.43;nan;100763.66;5007883;28;20182;-68
2022/06/16 10:51:05;;;;;;;5.07;1.70;;;;;;;27.41;nan;100799.13;5052186;28;20182;-67
2022/06/16 10:53:39;;;;;;;6.20;1.90;;;;;;;27.44;nan;100757.13;5052059;28;20219;-67
2022/06/16 10:56:17;;;;;;;2.42;1.75;;;;;;;27.48;nan;100758.03;5052379;28;20090;-68
2022/06/16 10:58:57;;;;;;;4.07;1.60;;;;;;;27.57;nan;100750.66;5056035;28;20029;-68
2022/06/16 11:01:22;;;;;;;8.30;1.90;;;;;;;27.62;nan;100744.25;5055644;28;20033;-68
2022/06/16 11:04:05;;;;;;;3.40;1.67;;;;;;;27.63;nan;100743.13;5037991;28;20036;-68
2022/06/16 11:06:31;;;;;;;3.35;1.80;;;;;;;27.69;nan;100736.41;5055644;28;20102;-67
2022/06/16 11:09:04;;;;;;;2.97;1.73;;;;;;;27.72;nan;100749.25;5055887;28;20414;-68
2022/06/16 11:11:52;;;;;;;3.97;1.90;;;;;;;27.79;nan;100760.31;5055432;28;20037;-70
2022/06/16 11:14:22;;;;;;;6.60;1.80;;;;;;;27.83;nan;100720.69;5055672;28;20033;-68
2022/06/16 11:16:51;;;;;;;6.65;1.80;;;;;;;27.83;nan;100749.66;5055593;28;20123;-68
2022/06/16 11:19:36;;;;;;;;;;;;;;;27.94;nan;100748.91;5055981;28;20029;-68
2022/06/16 11:22:04;;;;;;;3.78;1.45;;;;;;;28.00;nan;100735.97;5053120;28;19913;-68
2022/06/16 11:24:32;;;;;;;4.00;1.48;;;;;;;28.03;nan;100773.19;5055239;28;20127;-70
2022/06/16 11:27:12;;;;;;;4.38;1.60;;;;;;;28.14;nan;100735.66;5055383;28;20037;-68
2022/06/16 11:29:39;;;;;;;3.70;1.67;;;;;;;28.21;nan;100746.72;5055426;28;20033;-68
2022/06/16 11:32:06;;;;;;;4.68;1.77;;;;;;;28.34;nan;100737.47;5055246;28;20028;-69
2022/06/16 11:34:32;;;;;;;1.73;1.58;;;;;;;28.38;nan;100732.19;5037046;28;20046;-68
2022/06/16 11:37:12;;;;;;;3.25;1.60;;;;;;;28.43;nan;100761.75;5037018;28;20032;-69
2022/06/16 11:39:46;;;;;;;7.18;1.58;;;;;;;28.48;nan;100715.50;5037139;28;20061;-69
2022/06/16 11:43:04;;;;;;;4.20;1.90;;;;;;;28.50;nan;100747.69;5054963;28;20037;-69
2022/06/16 11:46:14;;;;;;;5.40;1.65;;;;;;;28.57;nan;100732.44;4973953;28;20085;-69
2022/06/16 11:48:48;;;;;;;3.95;1.60;;;;;;;28.52;nan;100735.41;4916560;29;20032;-69
2022/06/16 11:51:31;;;;;;;3.03;1.50;;;;;;;28.57;nan;100732.44;4916388;29;20197;-69
2022/06/16 11:54:06;;;;;;;5.15;1.60;;;;;;;28.69;nan;100717.31;4916139;29;20042;-69
2022/06/16 11:56:43;;;;;;;8.13;1.42;;;;;;;28.78;nan;100726.09;4916031;29;20036;-69
2022/06/16 11:59:45;;;;;;;2.75;1.50;;;;;;;28.91;nan;100743.94;4900603;29;20044;-69
2022/06/16 12:02:38;;;;;;;8.32;1.60;;;;;;;28.97;nan;100726.34;4916076;29;20075;-69
2022/06/16 12:05:18;;;;;;;3.65;1.48;;;;;;;29.03;nan;100705.97;4934411;29;20050;-69
2022/06/16 12:08:05;;;;;;;8.38;1.80;;;;;;;29.05;nan;100641.34;4934641;29;20058;-69
2022/06/16 12:10:39;;;;;;;3.63;1.58;;;;;;;29.16;nan;100717.59;4934869;29;20038;-69
2022/06/16 12:13:23;;;;;;;1.85;1.20;;;;;;;29.19;nan;100721.56;4934772;29;20040;-69
2022/06/16 12:16:03;;;;;;;3.58;1.75;;;;;;;29.17;nan;100716.47;4935055;29;20031;-69
2022/06/16 12:18:36;;;;;;;3.28;1.42;;;;;;;29.20;nan;100712.28;4947930;28;20061;-69
2022/06/16 12:21:13;;;;;;;6.55;1.67;;;;;;;29.16;nan;100638.16;5054728;28;20033;-69
2022/06/16 12:24:14;;;;;;;3.88;1.40;;;;;;;29.16;nan;100687.75;5053946;28;20442;-69
2022/06/16 12:27:02;;;;;;;2.75;1.42;;;;;;;29.34;nan;100696.41;5054138;28;20045;-68